Time,TemperatureF,DewpointF,PressureIn,WindDirection,WindDirectionDegrees,WindSpeedMPH,WindSpeedGustMPH,Humidity,HourlyPrecipIn,Conditions,Clouds,dailyrainin,SoftwareType,DateUTC
2013-01-11 00:03:00,40.0,29.0,-100.00,ESE,110,12.0,19.0,62,0.00,,,-99.99,,2013-01-11 05:03:00,
2013-01-11 00:13:00,40.0,29.0,-100.00,SE,125,9.0,17.0,63,0.00,,,-99.99,,2013-01-11 05:13:00,
2013-01-11 00:22:00,41.0,29.0,-100.00,SE,125,12.0,17.0,61,0.00,,,-99.99,,2013-01-11 05:22:00,
2013-01-11 00:33:00,41.0,29.0,-100.00,SE,130,12.0,18.0,62,0.00,,,-99.99,,2013-01-11 05:33:00,
2013-01-11 00:43:00,41.0,29.0,-100.00,SE,130,12.0,19.0,63,0.00,,,-99.99,,2013-01-11 05:43:00,
2013-01-11 00:52:00,41.0,30.0,-100.00,SE,125,11.0,16.0,64,0.00,,,-99.99,,2013-01-11 05:52:00,
2013-01-11 01:03:00,41.0,30.0,-100.00,SE,125,9.0,16.0,64,0.00,,,-99.99,,2013-01-11 06:03:00,
2013-01-11 01:12:00,41.0,30.0,-100.00,SE,130,11.0,15.0,64,0.00,,,-99.99,,2013-01-11 06:12:00,
2013-01-11 01:22:00,41.0,30.0,-100.00,SE,125,11.0,16.0,65,0.00,,,-99.99,,2013-01-11 06:22:00,
2013-01-11 01:32:00,41.0,30.0,-100.00,SE,125,11.0,16.0,65,0.00,,,-99.99,,2013-01-11 06:32:00,
2013-01-11 01:42:00,41.0,32.0,-100.00,SE,125,12.0,17.0,68,0.00,,,-99.99,,2013-01-11 06:42:00,
2013-01-11 01:52:00,41.0,32.0,-100.00,SE,125,12.0,17.0,67,0.00,,,-99.99,,2013-01-11 06:52:00,
2013-01-11 02:02:00,41.0,32.0,-100.00,ESE,120,14.0,19.0,68,0.00,,,-99.99,,2013-01-11 07:02:00,
2013-01-11 02:12:00,42.0,32.0,-100.00,SE,125,12.0,22.0,67,0.00,,,-99.99,,2013-01-11 07:12:00,
2013-01-11 02:22:00,42.0,32.0,-100.00,SE,135,13.0,20.0,68,0.00,,,-99.99,,2013-01-11 07:22:00,
2013-01-11 02:32:00,42.0,33.0,-100.00,SE,130,12.0,19.0,69,0.00,,,-99.99,,2013-01-11 07:32:00,
2013-01-11 02:42:00,42.0,33.0,-100.00,SE,130,12.0,19.0,69,0.00,,,-99.99,,2013-01-11 07:42:00,
2013-01-11 02:52:00,42.0,33.0,-100.00,SE,135,14.0,20.0,69,0.00,,,-99.99,,2013-01-11 07:52:00,
2013-01-11 03:02:00,43.0,33.0,-100.00,SE,125,16.0,21.0,69,0.00,,,-99.99,,2013-01-11 08:02:00,
2013-01-11 03:12:00,43.0,34.0,-100.00,SE,130,14.0,22.0,69,0.00,,,-99.99,,2013-01-11 08:12:00,
2013-01-11 03:22:00,43.0,34.0,-100.00,SE,135,11.0,20.0,70,0.00,,,-99.99,,2013-01-11 08:22:00,
2013-01-11 03:32:00,43.0,34.0,-100.00,ESE,115,13.0,19.0,71,0.00,,,-99.99,,2013-01-11 08:32:00,
2013-01-11 03:42:00,43.0,35.0,-100.00,SE,125,15.0,22.0,72,0.00,,,-99.99,,2013-01-11 08:42:00,
2013-01-11 03:52:00,43.0,35.0,-100.00,ESE,120,13.0,21.0,74,0.00,,,-99.99,,2013-01-11 08:52:00,
2013-01-11 04:02:00,43.0,36.0,-100.00,SE,135,12.0,19.0,75,0.00,,,-99.99,,2013-01-11 09:02:00,
2013-01-11 04:12:00,43.0,36.0,-100.00,SE,130,13.0,17.0,76,0.00,,,-99.99,,2013-01-11 09:12:00,
2013-01-11 04:23:00,44.0,37.0,-100.00,SE,135,16.0,22.0,75,0.00,,,-99.99,,2013-01-11 09:23:00,
2013-01-11 04:32:00,44.0,37.0,-100.00,SE,135,16.0,24.0,76,0.00,,,-99.99,,2013-01-11 09:32:00,
2013-01-11 04:42:00,44.0,37.0,-100.00,SE,125,14.0,22.0,76,0.00,,,-99.99,,2013-01-11 09:42:00,
2013-01-11 04:52:00,44.0,37.0,-100.00,SE,140,13.0,21.0,77,0.00,,,-99.99,,2013-01-11 09:52:00,
2013-01-11 05:02:00,44.0,38.0,-100.00,SE,140,11.0,19.0,77,0.00,,,-99.99,,2013-01-11 10:02:00,
2013-01-11 05:12:00,44.0,38.0,-100.00,SE,125,12.0,19.0,79,0.55,,,-99.99,,2013-01-11 10:12:00,
2013-01-11 05:22:00,45.0,39.0,-100.00,SE,125,14.0,21.0,80,0.00,,,-99.99,,2013-01-11 10:22:00,
2013-01-11 05:32:00,45.0,39.0,-100.00,SE,140,11.0,19.0,80,0.00,,,-99.99,,2013-01-11 10:32:00,
2013-01-11 05:42:00,45.0,40.0,-100.00,SE,135,14.0,21.0,82,0.55,,,-99.99,,2013-01-11 10:42:00,
2013-01-11 05:52:00,45.0,41.0,-100.00,SE,130,13.0,22.0,83,0.00,,,-99.99,,2013-01-11 10:52:00,
2013-01-11 06:03:00,46.0,40.0,-100.00,SE,130,14.0,21.0,82,0.00,,,-99.99,,2013-01-11 11:03:00,
2013-01-11 06:12:00,46.0,40.0,-100.00,SE,135,12.0,19.0,82,0.00,,,-99.99,,2013-01-11 11:12:00,
2013-01-11 06:22:00,46.0,41.0,-100.00,SE,140,12.0,20.0,82,3.39,,,-99.99,,2013-01-11 11:22:00,
2013-01-11 06:33:00,46.0,41.0,-100.00,SE,135,10.0,18.0,85,3.94,,,-99.99,,2013-01-11 11:33:00,
2013-01-11 06:43:00,45.0,42.0,-100.00,SE,145,8.0,14.0,88,20.39,,,-99.99,,2013-01-11 11:43:00,
2013-01-11 06:53:00,45.0,42.0,-100.00,SE,130,5.0,12.0,91,11.34,,,-99.99,,2013-01-11 11:53:00,
2013-01-11 07:03:00,46.0,43.0,-100.00,WNW,300,1.0,9.0,92,9.61,,,-99.99,,2013-01-11 12:03:00,
2013-01-11 07:12:00,46.0,44.0,-100.00,ENE,60,1.0,4.0,92,4.53,,,-99.99,,2013-01-11 12:12:00,
2013-01-11 07:22:00,46.0,43.0,-100.00,ESE,115,10.0,12.0,92,0.55,,,-99.99,,2013-01-11 12:22:00,
2013-01-11 07:33:00,46.0,44.0,-100.00,South,170,4.0,14.0,92,0.00,,,-99.99,,2013-01-11 12:33:00,
2013-01-11 07:43:00,48.0,47.0,-100.00,SSE,160,11.0,17.0,93,0.00,,,-99.99,,2013-01-11 12:43:00,
2013-01-11 07:52:00,49.0,47.0,-100.00,SSE,165,4.0,16.0,92,10.20,,,-99.99,,2013-01-11 12:52:00,
2013-01-11 08:03:00,49.0,47.0,-100.00,SE,145,7.0,13.0,92,1.69,,,-99.99,,2013-01-11 13:03:00,
2013-01-11 08:13:00,49.0,47.0,-100.00,SSE,165,2.0,12.0,92,9.61,,,-99.99,,2013-01-11 13:13:00,
2013-01-11 08:22:00,49.0,47.0,-100.00,South,180,4.0,9.0,92,9.61,,,-99.99,,2013-01-11 13:22:00,
2013-01-11 08:33:00,49.0,47.0,-100.00,SSE,160,6.0,11.0,92,8.50,,,-99.99,,2013-01-11 13:33:00,
2013-01-11 08:43:00,49.0,47.0,-100.00,SSE,165,7.0,11.0,92,6.77,,,-99.99,,2013-01-11 13:43:00,
2013-01-11 08:52:00,49.0,47.0,-100.00,SE,145,5.0,12.0,92,6.22,,,-99.99,,2013-01-11 13:52:00,
2013-01-11 09:03:00,49.0,47.0,-100.00,SSE,155,3.0,7.0,92,1.69,,,-99.99,,2013-01-11 14:03:00,
2013-01-11 09:12:00,48.0,46.0,-100.00,SE,125,9.0,12.0,92,3.39,,,-99.99,,2013-01-11 14:12:00,
2013-01-11 09:23:00,49.0,47.0,-100.00,ESE,110,12.0,19.0,92,0.55,,,-99.99,,2013-01-11 14:23:00,
2013-01-11 09:33:00,49.0,47.0,-100.00,ESE,120,11.0,18.0,92,0.00,,,-99.99,,2013-01-11 14:33:00,
2013-01-11 09:43:00,50.0,48.0,-100.00,SE,125,15.0,21.0,92,0.00,,,-99.99,,2013-01-11 14:43:00,
2013-01-11 09:53:00,51.0,49.0,-100.00,SE,135,18.0,28.0,91,0.00,,,-99.99,,2013-01-11 14:53:00,
2013-01-11 10:03:00,51.0,48.0,-100.00,SE,135,17.0,24.0,89,0.00,,,-99.99,,2013-01-11 15:03:00,
2013-01-11 10:13:00,51.0,48.0,-100.00,SE,135,14.0,22.0,88,0.00,,,-99.99,,2013-01-11 15:13:00,
2013-01-11 10:23:00,52.0,48.0,-100.00,SE,135,13.0,19.0,88,0.00,,,-99.99,,2013-01-11 15:23:00,
2013-01-11 10:33:00,53.0,49.0,-100.00,SE,145,12.0,22.0,86,0.00,,,-99.99,,2013-01-11 15:33:00,
2013-01-11 10:43:00,53.0,49.0,-100.00,SSE,155,12.0,19.0,85,0.00,,,-99.99,,2013-01-11 15:43:00,
2013-01-11 10:52:00,54.0,49.0,-100.00,SSE,160,12.0,23.0,84,0.00,,,-99.99,,2013-01-11 15:52:00,
2013-01-11 11:03:00,54.0,49.0,-100.00,SSE,160,11.0,22.0,84,0.00,,,-99.99,,2013-01-11 16:03:00,
2013-01-11 11:12:00,53.0,49.0,-100.00,South,180,11.0,20.0,85,0.00,,,-99.99,,2013-01-11 16:12:00,
2013-01-11 11:23:00,54.0,50.0,-100.00,SSE,160,7.0,16.0,85,0.00,,,-99.99,,2013-01-11 16:23:00,
2013-01-11 11:33:00,55.0,50.0,-100.00,South,170,6.0,16.0,85,0.00,,,-99.99,,2013-01-11 16:33:00,
2013-01-11 11:43:00,55.0,51.0,-100.00,South,180,7.0,12.0,83,0.00,,,-99.99,,2013-01-11 16:43:00,
2013-01-11 11:53:00,55.0,51.0,-100.00,South,175,7.0,14.0,83,0.00,,,-99.99,,2013-01-11 16:53:00,
2013-01-11 12:03:00,55.0,51.0,-100.00,South,190,9.0,13.0,83,0.00,,,-99.99,,2013-01-11 17:03:00,
2013-01-11 12:12:00,56.0,51.0,-100.00,SSW,195,6.0,14.0,83,0.00,,,-99.99,,2013-01-11 17:12:00,
2013-01-11 12:22:00,56.0,51.0,-100.00,South,190,8.0,15.0,82,0.00,,,-99.99,,2013-01-11 17:22:00,
2013-01-11 12:33:00,57.0,51.0,-100.00,South,180,7.0,12.0,81,0.00,,,-99.99,,2013-01-11 17:33:00,
2013-01-11 12:43:00,57.0,51.0,-100.00,SSW,195,7.0,12.0,80,0.00,,,-99.99,,2013-01-11 17:43:00,
2013-01-11 12:53:00,58.0,51.0,-100.00,SSW,200,7.0,19.0,78,0.00,,,-99.99,,2013-01-11 17:53:00,
2013-01-11 13:04:00,59.0,51.0,-100.00,South,170,7.0,17.0,76,0.00,,,-99.99,,2013-01-11 18:04:00,
2013-01-11 13:13:00,58.0,51.0,-100.00,South,175,9.0,16.0,77,0.00,,,-99.99,,2013-01-11 18:13:00,
2013-01-11 13:23:00,57.0,50.0,-100.00,SSW,200,10.0,17.0,77,0.00,,,-99.99,,2013-01-11 18:23:00,
2013-01-11 13:33:00,58.0,51.0,-100.00,South,180,6.0,16.0,77,0.00,,,-99.99,,2013-01-11 18:33:00,
2013-01-11 13:43:00,59.0,51.0,-100.00,South,185,7.0,16.0,74,0.00,,,-99.99,,2013-01-11 18:43:00,
2013-01-11 13:53:00,58.0,51.0,-100.00,South,180,7.0,16.0,76,0.00,,,-99.99,,2013-01-11 18:53:00,
2013-01-11 14:03:00,59.0,51.0,-100.00,South,185,6.0,16.0,74,0.00,,,-99.99,,2013-01-11 19:03:00,
2013-01-11 14:12:00,59.0,51.0,-100.00,South,175,6.0,12.0,72,0.00,,,-99.99,,2013-01-11 19:12:00,
2013-01-11 14:22:00,58.0,50.0,-100.00,SSE,160,5.0,12.0,74,0.00,,,-99.99,,2013-01-11 19:22:00,
2013-01-11 14:33:00,59.0,51.0,-100.00,SSE,165,2.0,9.0,73,0.00,,,-99.99,,2013-01-11 19:33:00,
2013-01-11 14:43:00,59.0,50.0,-100.00,South,185,7.0,12.0,72,0.00,,,-99.99,,2013-01-11 19:43:00,
2013-01-11 14:53:00,59.0,50.0,-100.00,South,190,4.0,11.0,72,0.00,,,-99.99,,2013-01-11 19:53:00,
2013-01-11 15:03:00,58.0,50.0,-100.00,South,185,4.0,12.0,73,0.00,,,-99.99,,2013-01-11 20:03:00,
2013-01-11 15:13:00,59.0,50.0,-100.00,SSE,165,4.0,11.0,72,0.00,,,-99.99,,2013-01-11 20:13:00,
2013-01-11 15:22:00,59.0,50.0,-100.00,South,175,4.0,16.0,70,0.00,,,-99.99,,2013-01-11 20:22:00,
2013-01-11 15:33:00,59.0,50.0,-100.00,South,175,5.0,12.0,71,0.00,,,-99.99,,2013-01-11 20:33:00,
2013-01-11 15:43:00,58.0,49.0,-100.00,South,180,7.0,12.0,71,0.00,,,-99.99,,2013-01-11 20:43:00,
2013-01-11 15:52:00,58.0,49.0,-100.00,South,180,2.0,15.0,73,0.00,,,-99.99,,2013-01-11 20:52:00,
2013-01-11 16:03:00,58.0,49.0,-100.00,South,190,6.0,11.0,74,0.00,,,-99.99,,2013-01-11 21:03:00,
2013-01-11 16:13:00,58.0,49.0,-100.00,SSW,195,6.0,14.0,74,0.00,,,-99.99,,2013-01-11 21:13:00,
2013-01-11 16:23:00,57.0,49.0,-100.00,South,185,6.0,12.0,74,0.00,,,-99.99,,2013-01-11 21:23:00,
2013-01-11 16:33:00,57.0,49.0,-100.00,South,190,6.0,13.0,75,0.00,,,-99.99,,2013-01-11 21:33:00,
2013-01-11 16:42:00,57.0,49.0,-100.00,South,180,6.0,9.0,74,0.00,,,-99.99,,2013-01-11 21:42:00,
2013-01-11 16:52:00,56.0,49.0,-100.00,South,190,4.0,9.0,74,0.00,,,-99.99,,2013-01-11 21:52:00,
2013-01-11 17:03:00,56.0,48.0,-100.00,South,180,1.0,9.0,75,0.00,,,-99.99,,2013-01-11 22:03:00,
2013-01-11 17:12:00,55.0,48.0,-100.00,SE,145,2.0,7.0,76,0.00,,,-99.99,,2013-01-11 22:12:00,
2013-01-11 17:22:00,55.0,48.0,-100.00,SE,140,1.0,8.0,77,0.00,,,-99.99,,2013-01-11 22:22:00,
2013-01-11 17:33:00,55.0,48.0,-100.00,SE,140,1.0,6.0,78,0.00,,,-99.99,,2013-01-11 22:33:00,
2013-01-11 17:42:00,54.0,48.0,-100.00,SSE,160,2.0,4.0,79,0.00,,,-99.99,,2013-01-11 22:42:00,
2013-01-11 17:52:00,53.0,48.0,-100.00,SSE,150,2.0,6.0,81,0.00,,,-99.99,,2013-01-11 22:52:00,
2013-01-11 18:02:00,53.0,48.0,-100.00,SE,140,1.0,4.0,82,0.00,,,-99.99,,2013-01-11 23:02:00,
2013-01-11 18:13:00,52.0,47.0,-100.00,SSE,150,1.0,3.0,83,0.00,,,-99.99,,2013-01-11 23:13:00,
2013-01-11 18:23:00,52.0,47.0,-100.00,SSE,160,1.0,4.0,84,0.00,,,-99.99,,2013-01-11 23:23:00,
2013-01-11 18:32:00,51.0,47.0,-100.00,SE,145,3.0,5.0,84,0.00,,,-99.99,,2013-01-11 23:32:00,
2013-01-11 18:43:00,51.0,46.0,-100.00,SSE,155,5.0,6.0,83,0.00,,,-99.99,,2013-01-11 23:43:00,
2013-01-11 18:53:00,52.0,46.0,-100.00,SSE,150,4.0,8.0,81,0.00,,,-99.99,,2013-01-11 23:53:00,
2013-01-11 19:03:00,51.0,46.0,-100.00,SE,140,4.0,7.0,80,0.00,,,-99.99,,2013-01-12 00:03:00,
2013-01-11 19:12:00,51.0,46.0,-100.00,SSE,160,3.0,7.0,80,0.00,,,-99.99,,2013-01-12 00:12:00,
2013-01-11 19:23:00,51.0,45.0,-100.00,SSE,155,2.0,6.0,79,0.00,,,-99.99,,2013-01-12 00:23:00,
2013-01-11 19:33:00,51.0,45.0,-100.00,SSE,150,3.0,6.0,80,0.00,,,-99.99,,2013-01-12 00:33:00,
2013-01-11 19:43:00,51.0,45.0,-100.00,SSE,155,2.0,7.0,80,0.00,,,-99.99,,2013-01-12 00:43:00,
2013-01-11 19:52:00,50.0,45.0,-100.00,SE,145,4.0,6.0,81,0.00,,,-99.99,,2013-01-12 00:52:00,
2013-01-11 20:03:00,51.0,45.0,-100.00,SSE,150,4.0,6.0,82,0.00,,,-99.99,,2013-01-12 01:03:00,
2013-01-11 20:12:00,51.0,45.0,-100.00,SSE,150,4.0,6.0,82,0.00,,,-99.99,,2013-01-12 01:12:00,
2013-01-11 20:22:00,51.0,46.0,-100.00,SSE,155,4.0,7.0,81,0.00,,,-99.99,,2013-01-12 01:22:00,
2013-01-11 20:33:00,51.0,45.0,-100.00,SE,140,4.0,9.0,81,0.00,,,-99.99,,2013-01-12 01:33:00,
2013-01-11 20:43:00,50.0,45.0,-100.00,SE,145,3.0,7.0,82,0.00,,,-99.99,,2013-01-12 01:43:00,
2013-01-11 20:53:00,50.0,45.0,-100.00,SE,135,3.0,6.0,83,0.00,,,-99.99,,2013-01-12 01:53:00,
2013-01-11 21:02:00,49.0,45.0,-100.00,SE,135,3.0,6.0,84,0.00,,,-99.99,,2013-01-12 02:02:00,
2013-01-11 21:12:00,49.0,45.0,-100.00,SSE,150,2.0,6.0,84,0.00,,,-99.99,,2013-01-12 02:12:00,
2013-01-11 21:22:00,49.0,45.0,-100.00,SE,145,2.0,6.0,84,0.00,,,-99.99,,2013-01-12 02:22:00,
2013-01-11 21:33:00,49.0,45.0,-100.00,SE,140,4.0,6.0,84,0.00,,,-99.99,,2013-01-12 02:33:00,
2013-01-11 21:43:00,50.0,45.0,-100.00,SE,140,5.0,9.0,84,0.00,,,-99.99,,2013-01-12 02:43:00,
2013-01-11 21:53:00,49.0,45.0,-100.00,SE,140,4.0,9.0,83,0.00,,,-99.99,,2013-01-12 02:53:00,
2013-01-11 22:03:00,50.0,45.0,-100.00,SE,145,6.0,10.0,83,0.00,,,-99.99,,2013-01-12 03:03:00,
2013-01-11 22:12:00,50.0,45.0,-100.00,SE,135,7.0,11.0,83,0.00,,,-99.99,,2013-01-12 03:12:00,
2013-01-11 22:22:00,50.0,45.0,-100.00,SE,135,7.0,12.0,82,0.00,,,-99.99,,2013-01-12 03:22:00,
2013-01-11 22:33:00,50.0,45.0,-100.00,SE,130,4.0,8.0,82,0.00,,,-99.99,,2013-01-12 03:33:00,
2013-01-11 22:43:00,50.0,45.0,-100.00,SE,140,6.0,10.0,82,0.00,,,-99.99,,2013-01-12 03:43:00,
2013-01-11 22:52:00,51.0,45.0,-100.00,SE,140,6.0,11.0,81,0.00,,,-99.99,,2013-01-12 03:52:00,
2013-01-11 23:02:00,51.0,45.0,-100.00,SE,140,7.0,12.0,81,0.00,,,-99.99,,2013-01-12 04:02:00,
2013-01-11 23:12:00,51.0,45.0,-100.00,SE,145,7.0,10.0,80,0.00,,,-99.99,,2013-01-12 04:12:00,
2013-01-11 23:22:00,51.0,45.0,-100.00,SE,145,7.0,12.0,80,0.00,,,-99.99,,2013-01-12 04:22:00,
2013-01-11 23:32:00,51.0,45.0,-100.00,SE,140,6.0,10.0,80,0.00,,,-99.99,,2013-01-12 04:32:00,
2013-01-11 23:42:00,51.0,45.0,-100.00,SE,145,6.0,12.0,80,0.00,,,-99.99,,2013-01-12 04:42:00,
2013-01-11 23:52:00,51.0,45.0,-100.00,SE,140,6.0,11.0,80,0.00,,,-99.99,,2013-01-12 04:52:00,